sensor_id;sensor_type;location;lat;lon;timestamp;P1;durP1;ratioP1;P2;durP2;ratioP2
18206;SDS011;9229;52.354;20.886;2023-06-22T00:00:04;33.35;;;21.65;;
18206;SDS011;9229;52.354;20.886;2023-06-22T00:05:12;24.63;;;19.58;;
18206;SDS011;9229;52.354;20.886;2023-06-22T00:10:15;28.77;;;22.02;;
18206;SDS011;9229;52.354;20.886;2023-06-22T00:15:17;21.42;;;17.08;;
18206;SDS011;9229;52.354;20.886;2023-06-22T00:20:20;20.35;;;16.65;;
18206;SDS011;9229;52.354;20.886;2023-06-22T00:25:24;24.42;;;18.98;;
18206;SDS011;9229;52.354;20.886;2023-06-22T00:30:27;34.38;;;21.83;;
18206;SDS011;9229;52.354;20.886;2023-06-22T00:35:31;31.30;;;20.35;;
18206;SDS011;9229;52.354;20.886;2023-06-22T00:40:35;25.75;;;20.30;;
18206;SDS011;9229;52.354;20.886;2023-06-22T00:45:37;30.00;;;21.50;;
18206;SDS011;9229;52.354;20.886;2023-06-22T00:50:39;31.88;;;22.52;;
18206;SDS011;9229;52.354;20.886;2023-06-22T00:55:44;36.05;;;23.27;;
18206;SDS011;9229;52.354;20.886;2023-06-22T01:00:47;31.98;;;23.60;;
18206;SDS011;9229;52.354;20.886;2023-06-22T01:05:50;35.92;;;23.60;;
18206;SDS011;9229;52.354;20.886;2023-06-22T01:10:55;35.53;;;23.13;;
18206;SDS011;9229;52.354;20.886;2023-06-22T01:16:02;32.33;;;22.10;;
18206;SDS011;9229;52.354;20.886;2023-06-22T01:21:09;29.45;;;20.65;;
18206;SDS011;9229;52.354;20.886;2023-06-22T01:26:17;30.92;;;22.40;;
18206;SDS011;9229;52.354;20.886;2023-06-22T01:31:25;30.58;;;21.88;;
18206;SDS011;9229;52.354;20.886;2023-06-22T01:36:30;33.85;;;23.80;;
18206;SDS011;9229;52.354;20.886;2023-06-22T01:41:34;33.20;;;23.83;;
18206;SDS011;9229;52.354;20.886;2023-06-22T01:46:39;39.40;;;24.02;;
18206;SDS011;9229;52.354;20.886;2023-06-22T01:51:42;35.67;;;25.42;;
18206;SDS011;9229;52.354;20.886;2023-06-22T01:56:44;31.52;;;24.33;;
18206;SDS011;9229;52.354;20.886;2023-06-22T02:01:49;35.75;;;25.20;;
18206;SDS011;9229;52.354;20.886;2023-06-22T02:06:56;39.58;;;26.88;;
18206;SDS011;9229;52.354;20.886;2023-06-22T02:12:00;39.97;;;27.20;;
18206;SDS011;9229;52.354;20.886;2023-06-22T02:17:08;50.33;;;29.95;;
18206;SDS011;9229;52.354;20.886;2023-06-22T02:22:10;42.30;;;28.33;;
18206;SDS011;9229;52.354;20.886;2023-06-22T02:27:13;44.60;;;31.48;;
18206;SDS011;9229;52.354;20.886;2023-06-22T02:32:16;49.38;;;32.67;;
18206;SDS011;9229;52.354;20.886;2023-06-22T02:37:20;53.22;;;34.10;;
18206;SDS011;9229;52.354;20.886;2023-06-22T02:42:27;59.58;;;37.30;;
18206;SDS011;9229;52.354;20.886;2023-06-22T02:47:31;64.22;;;40.38;;
18206;SDS011;9229;52.354;20.886;2023-06-22T02:52:33;77.63;;;42.97;;
18206;SDS011;9229;52.354;20.886;2023-06-22T02:57:35;66.75;;;42.20;;
18206;SDS011;9229;52.354;20.886;2023-06-22T03:02:39;66.20;;;40.70;;
18206;SDS011;9229;52.354;20.886;2023-06-22T03:07:41;68.13;;;40.97;;
18206;SDS011;9229;52.354;20.886;2023-06-22T03:12:44;70.57;;;42.00;;
18206;SDS011;9229;52.354;20.886;2023-06-22T03:17:47;68.18;;;40.83;;
18206;SDS011;9229;52.354;20.886;2023-06-22T03:22:49;67.53;;;41.22;;
18206;SDS011;9229;52.354;20.886;2023-06-22T03:27:51;65.40;;;39.17;;
18206;SDS011;9229;52.354;20.886;2023-06-22T03:32:55;68.70;;;41.38;;
18206;SDS011;9229;52.354;20.886;2023-06-22T03:37:57;66.45;;;39.83;;
18206;SDS011;9229;52.354;20.886;2023-06-22T03:42:59;64.13;;;38.67;;
18206;SDS011;9229;52.354;20.886;2023-06-22T03:48:05;66.45;;;40.58;;
18206;SDS011;9229;52.354;20.886;2023-06-22T03:53:08;63.03;;;39.53;;
18206;SDS011;9229;52.354;20.886;2023-06-22T03:58:10;61.30;;;37.80;;
18206;SDS011;9229;52.354;20.886;2023-06-22T04:03:14;63.20;;;38.47;;
18206;SDS011;9229;52.354;20.886;2023-06-22T04:08:18;56.67;;;36.55;;
18206;SDS011;9229;52.354;20.886;2023-06-22T04:13:20;62.38;;;37.08;;
18206;SDS011;9229;52.354;20.886;2023-06-22T04:18:24;53.25;;;33.60;;
18206;SDS011;9229;52.354;20.886;2023-06-22T04:23:26;54.88;;;33.70;;
18206;SDS011;9229;52.354;20.886;2023-06-22T04:28:28;50.10;;;30.52;;
18206;SDS011;9229;52.354;20.886;2023-06-22T04:33:36;48.22;;;31.02;;
18206;SDS011;9229;52.354;20.886;2023-06-22T04:38:38;49.25;;;29.58;;
18206;SDS011;9229;52.354;20.886;2023-06-22T04:43:40;40.90;;;27.25;;
18206;SDS011;9229;52.354;20.886;2023-06-22T04:48:43;42.53;;;27.88;;
18206;SDS011;9229;52.354;20.886;2023-06-22T04:53:45;38.53;;;24.60;;
18206;SDS011;9229;52.354;20.886;2023-06-22T04:58:48;36.15;;;24.33;;
18206;SDS011;9229;52.354;20.886;2023-06-22T05:03:53;39.03;;;24.25;;
18206;SDS011;9229;52.354;20.886;2023-06-22T05:08:57;41.65;;;24.38;;
18206;SDS011;9229;52.354;20.886;2023-06-22T05:13:59;33.53;;;21.38;;
18206;SDS011;9229;52.354;20.886;2023-06-22T05:19:03;36.13;;;23.40;;
18206;SDS011;9229;52.354;20.886;2023-06-22T05:24:05;28.80;;;19.60;;
18206;SDS011;9229;52.354;20.886;2023-06-22T05:29:07;27.73;;;19.08;;
18206;SDS011;9229;52.354;20.886;2023-06-22T05:34:10;28.83;;;20.13;;
18206;SDS011;9229;52.354;20.886;2023-06-22T05:39:12;26.60;;;18.90;;
18206;SDS011;9229;52.354;20.886;2023-06-22T05:44:15;26.02;;;17.55;;
18206;SDS011;9229;52.354;20.886;2023-06-22T05:49:19;23.83;;;16.35;;
18206;SDS011;9229;52.354;20.886;2023-06-22T05:54:22;24.70;;;17.33;;
18206;SDS011;9229;52.354;20.886;2023-06-22T05:59:24;26.15;;;15.75;;
18206;SDS011;9229;52.354;20.886;2023-06-22T06:04:28;24.20;;;15.05;;
18206;SDS011;9229;52.354;20.886;2023-06-22T06:09:30;18.90;;;14.75;;
18206;SDS011;9229;52.354;20.886;2023-06-22T06:14:32;21.63;;;15.65;;
18206;SDS011;9229;52.354;20.886;2023-06-22T06:19:36;25.77;;;15.48;;
18206;SDS011;9229;52.354;20.886;2023-06-22T06:24:38;21.35;;;14.35;;
18206;SDS011;9229;52.354;20.886;2023-06-22T06:29:40;24.23;;;15.13;;
18206;SDS011;9229;52.354;20.886;2023-06-22T06:34:43;18.35;;;14.00;;
18206;SDS011;9229;52.354;20.886;2023-06-22T06:39:46;18.10;;;13.52;;
18206;SDS011;9229;52.354;20.886;2023-06-22T06:44:48;19.15;;;13.98;;
18206;SDS011;9229;52.354;20.886;2023-06-22T06:49:53;16.35;;;12.00;;
18206;SDS011;9229;52.354;20.886;2023-06-22T06:54:55;15.70;;;11.90;;
18206;SDS011;9229;52.354;20.886;2023-06-22T06:59:57;15.88;;;12.00;;
18206;SDS011;9229;52.354;20.886;2023-06-22T07:05:03;16.73;;;11.18;;
18206;SDS011;9229;52.354;20.886;2023-06-22T07:10:06;13.52;;;9.75;;
18206;SDS011;9229;52.354;20.886;2023-06-22T07:15:10;10.25;;;8.48;;
18206;SDS011;9229;52.354;20.886;2023-06-22T07:20:24;9.32;;;7.75;;
18206;SDS011;9229;52.354;20.886;2023-06-22T07:25:26;12.57;;;7.00;;
18206;SDS011;9229;52.354;20.886;2023-06-22T07:30:29;10.23;;;7.35;;
18206;SDS011;9229;52.354;20.886;2023-06-22T07:58:40;19.83;;;7.40;;
18206;SDS011;9229;52.354;20.886;2023-06-22T08:03:48;4.32;;;3.92;;
18206;SDS011;9229;52.354;20.886;2023-06-22T08:08:57;4.72;;;4.32;;
18206;SDS011;9229;52.354;20.886;2023-06-22T08:14:01;4.20;;;3.95;;
18206;SDS011;9229;52.354;20.886;2023-06-22T08:19:02;10.45;;;3.63;;
18206;SDS011;9229;52.354;20.886;2023-06-22T08:24:05;3.45;;;3.17;;
18206;SDS011;9229;52.354;20.886;2023-06-22T08:29:09;7.63;;;3.63;;
18206;SDS011;9229;52.354;20.886;2023-06-22T08:34:11;4.18;;;3.85;;
18206;SDS011;9229;52.354;20.886;2023-06-22T08:39:14;3.47;;;3.28;;
18206;SDS011;9229;52.354;20.886;2023-06-22T08:44:18;4.20;;;3.20;;
18206;SDS011;9229;52.354;20.886;2023-06-22T08:49:20;5.50;;;3.15;;
18206;SDS011;9229;52.354;20.886;2023-06-22T08:54:23;3.45;;;3.13;;
18206;SDS011;9229;52.354;20.886;2023-06-22T08:59:26;3.60;;;3.40;;
18206;SDS011;9229;52.354;20.886;2023-06-22T09:04:28;18.42;;;4.03;;
18206;SDS011;9229;52.354;20.886;2023-06-22T09:09:35;3.63;;;3.30;;
18206;SDS011;9229;52.354;20.886;2023-06-22T09:14:38;12.73;;;4.20;;
18206;SDS011;9229;52.354;20.886;2023-06-22T09:19:40;5.90;;;4.10;;
18206;SDS011;9229;52.354;20.886;2023-06-22T09:24:43;10.70;;;3.47;;
18206;SDS011;9229;52.354;20.886;2023-06-22T09:29:47;4.70;;;3.63;;
18206;SDS011;9229;52.354;20.886;2023-06-22T09:34:49;10.13;;;4.00;;
18206;SDS011;9229;52.354;20.886;2023-06-22T09:39:51;5.00;;;3.63;;
18206;SDS011;9229;52.354;20.886;2023-06-22T09:44:55;6.25;;;3.80;;
18206;SDS011;9229;52.354;20.886;2023-06-22T09:49:57;4.50;;;4.07;;
18206;SDS011;9229;52.354;20.886;2023-06-22T09:55:00;4.53;;;4.32;;
18206;SDS011;9229;52.354;20.886;2023-06-22T10:00:05;4.70;;;4.20;;
18206;SDS011;9229;52.354;20.886;2023-06-22T10:05:11;4.97;;;4.18;;
18206;SDS011;9229;52.354;20.886;2023-06-22T10:10:14;5.38;;;4.47;;
18206;SDS011;9229;52.354;20.886;2023-06-22T10:15:17;10.23;;;5.10;;
18206;SDS011;9229;52.354;20.886;2023-06-22T10:20:19;6.57;;;4.55;;
18206;SDS011;9229;52.354;20.886;2023-06-22T10:25:22;4.35;;;3.90;;
18206;SDS011;9229;52.354;20.886;2023-06-22T10:30:26;5.72;;;4.20;;
18206;SDS011;9229;52.354;20.886;2023-06-22T10:35:29;5.93;;;4.63;;
18206;SDS011;9229;52.354;20.886;2023-06-22T10:40:31;4.07;;;3.78;;
18206;SDS011;9229;52.354;20.886;2023-06-22T10:45:35;6.70;;;4.35;;
18206;SDS011;9229;52.354;20.886;2023-06-22T10:50:37;5.25;;;4.28;;
18206;SDS011;9229;52.354;20.886;2023-06-22T10:55:39;4.57;;;4.18;;
18206;SDS011;9229;52.354;20.886;2023-06-22T11:00:43;5.28;;;4.00;;
18206;SDS011;9229;52.354;20.886;2023-06-22T11:05:45;4.40;;;4.00;;
18206;SDS011;9229;52.354;20.886;2023-06-22T11:10:48;10.73;;;4.63;;
18206;SDS011;9229;52.354;20.886;2023-06-22T11:15:51;4.97;;;4.47;;
18206;SDS011;9229;52.354;20.886;2023-06-22T11:20:53;5.80;;;4.22;;
18206;SDS011;9229;52.354;20.886;2023-06-22T11:25:55;4.63;;;4.38;;
18206;SDS011;9229;52.354;20.886;2023-06-22T11:30:58;4.70;;;4.40;;
18206;SDS011;9229;52.354;20.886;2023-06-22T11:36:00;4.60;;;4.22;;
18206;SDS011;9229;52.354;20.886;2023-06-22T11:41:02;8.75;;;4.50;;
18206;SDS011;9229;52.354;20.886;2023-06-22T11:46:07;6.68;;;4.53;;
18206;SDS011;9229;52.354;20.886;2023-06-22T11:51:09;4.50;;;4.10;;
18206;SDS011;9229;52.354;20.886;2023-06-22T11:56:11;7.40;;;4.57;;
18206;SDS011;9229;52.354;20.886;2023-06-22T12:01:14;7.22;;;5.00;;
18206;SDS011;9229;52.354;20.886;2023-06-22T12:06:17;5.35;;;4.80;;
18206;SDS011;9229;52.354;20.886;2023-06-22T12:11:19;5.50;;;4.88;;
18206;SDS011;9229;52.354;20.886;2023-06-22T12:16:23;5.38;;;4.97;;
18206;SDS011;9229;52.354;20.886;2023-06-22T12:21:25;6.35;;;4.53;;
18206;SDS011;9229;52.354;20.886;2023-06-22T12:26:27;5.03;;;4.55;;
18206;SDS011;9229;52.354;20.886;2023-06-22T12:31:30;4.15;;;3.95;;
18206;SDS011;9229;52.354;20.886;2023-06-22T12:36:32;6.50;;;4.10;;
18206;SDS011;9229;52.354;20.886;2023-06-22T12:41:35;4.90;;;4.55;;
18206;SDS011;9229;52.354;20.886;2023-06-22T12:46:38;4.95;;;4.57;;
18206;SDS011;9229;52.354;20.886;2023-06-22T12:51:40;6.45;;;5.35;;
18206;SDS011;9229;52.354;20.886;2023-06-22T12:56:44;5.93;;;4.88;;
18206;SDS011;9229;52.354;20.886;2023-06-22T13:01:48;6.13;;;5.57;;
18206;SDS011;9229;52.354;20.886;2023-06-22T13:06:50;6.28;;;5.63;;
18206;SDS011;9229;52.354;20.886;2023-06-22T13:11:52;6.05;;;5.15;;
18206;SDS011;9229;52.354;20.886;2023-06-22T13:16:57;5.82;;;5.43;;
18206;SDS011;9229;52.354;20.886;2023-06-22T13:21:59;5.85;;;5.43;;
18206;SDS011;9229;52.354;20.886;2023-06-22T13:27:02;6.72;;;6.05;;
18206;SDS011;9229;52.354;20.886;2023-06-22T13:32:06;7.00;;;5.93;;
18206;SDS011;9229;52.354;20.886;2023-06-22T13:37:09;6.05;;;5.55;;
18206;SDS011;9229;52.354;20.886;2023-06-22T13:42:11;7.32;;;5.40;;
18206;SDS011;9229;52.354;20.886;2023-06-22T13:47:14;7.68;;;6.28;;
18206;SDS011;9229;52.354;20.886;2023-06-22T13:52:17;8.60;;;5.60;;
18206;SDS011;9229;52.354;20.886;2023-06-22T13:57:19;6.35;;;5.85;;
18206;SDS011;9229;52.354;20.886;2023-06-22T14:02:23;6.90;;;6.15;;
18206;SDS011;9229;52.354;20.886;2023-06-22T14:07:25;7.30;;;5.45;;
18206;SDS011;9229;52.354;20.886;2023-06-22T14:12:27;6.22;;;5.82;;
18206;SDS011;9229;52.354;20.886;2023-06-22T14:17:30;8.27;;;5.53;;
18206;SDS011;9229;52.354;20.886;2023-06-22T14:22:32;8.35;;;5.93;;
18206;SDS011;9229;52.354;20.886;2023-06-22T14:27:35;6.43;;;5.25;;
18206;SDS011;9229;52.354;20.886;2023-06-22T14:32:39;5.65;;;5.15;;
18206;SDS011;9229;52.354;20.886;2023-06-22T14:37:41;9.95;;;6.15;;
18206;SDS011;9229;52.354;20.886;2023-06-22T14:42:43;4.90;;;4.60;;
18206;SDS011;9229;52.354;20.886;2023-06-22T14:47:46;5.80;;;4.80;;
18206;SDS011;9229;52.354;20.886;2023-06-22T14:52:48;7.40;;;4.68;;
18206;SDS011;9229;52.354;20.886;2023-06-22T14:57:49;4.65;;;4.25;;
18206;SDS011;9229;52.354;20.886;2023-06-22T15:02:53;4.88;;;4.57;;
18206;SDS011;9229;52.354;20.886;2023-06-22T15:07:55;6.85;;;4.47;;
18206;SDS011;9229;52.354;20.886;2023-06-22T15:12:57;5.10;;;4.13;;
18206;SDS011;9229;52.354;20.886;2023-06-22T15:18:00;4.78;;;4.47;;
18206;SDS011;9229;52.354;20.886;2023-06-22T15:23:03;5.10;;;4.47;;
18206;SDS011;9229;52.354;20.886;2023-06-22T15:28:07;4.80;;;4.40;;
18206;SDS011;9229;52.354;20.886;2023-06-22T15:33:11;5.97;;;4.72;;
18206;SDS011;9229;52.354;20.886;2023-06-22T15:38:15;6.57;;;4.78;;
18206;SDS011;9229;52.354;20.886;2023-06-22T15:43:18;10.00;;;4.13;;
18206;SDS011;9229;52.354;20.886;2023-06-22T15:48:22;7.63;;;4.93;;
18206;SDS011;9229;52.354;20.886;2023-06-22T15:53:24;4.90;;;4.43;;
18206;SDS011;9229;52.354;20.886;2023-06-22T15:58:26;7.88;;;4.88;;
18206;SDS011;9229;52.354;20.886;2023-06-22T16:03:29;4.90;;;4.50;;
18206;SDS011;9229;52.354;20.886;2023-06-22T16:08:31;6.25;;;5.13;;
18206;SDS011;9229;52.354;20.886;2023-06-22T16:13:34;24.40;;;6.22;;
18206;SDS011;9229;52.354;20.886;2023-06-22T16:18:37;7.82;;;5.38;;
18206;SDS011;9229;52.354;20.886;2023-06-22T16:23:41;5.40;;;5.00;;
18206;SDS011;9229;52.354;20.886;2023-06-22T16:28:43;5.40;;;4.90;;
18206;SDS011;9229;52.354;20.886;2023-06-22T16:33:46;5.50;;;5.05;;
18206;SDS011;9229;52.354;20.886;2023-06-22T16:38:49;8.18;;;5.32;;
18206;SDS011;9229;52.354;20.886;2023-06-22T16:43:51;5.15;;;4.75;;
18206;SDS011;9229;52.354;20.886;2023-06-22T16:48:55;5.60;;;5.10;;
18206;SDS011;9229;52.354;20.886;2023-06-22T16:53:58;5.20;;;4.80;;
18206;SDS011;9229;52.354;20.886;2023-06-22T16:59:00;7.78;;;5.60;;
18206;SDS011;9229;52.354;20.886;2023-06-22T17:04:06;7.25;;;5.10;;
18206;SDS011;9229;52.354;20.886;2023-06-22T17:09:10;5.60;;;5.20;;
18206;SDS011;9229;52.354;20.886;2023-06-22T17:14:14;6.18;;;5.68;;
18206;SDS011;9229;52.354;20.886;2023-06-22T17:19:17;4.78;;;4.47;;
18206;SDS011;9229;52.354;20.886;2023-06-22T17:24:20;5.47;;;4.95;;
18206;SDS011;9229;52.354;20.886;2023-06-22T17:29:27;5.65;;;5.10;;
18206;SDS011;9229;52.354;20.886;2023-06-22T17:34:33;6.45;;;4.78;;
18206;SDS011;9229;52.354;20.886;2023-06-22T17:39:35;10.43;;;5.13;;
18206;SDS011;9229;52.354;20.886;2023-06-22T17:44:37;12.25;;;5.30;;
18206;SDS011;9229;52.354;20.886;2023-06-22T17:49:43;5.68;;;5.28;;
18206;SDS011;9229;52.354;20.886;2023-06-22T17:54:45;5.95;;;5.40;;
18206;SDS011;9229;52.354;20.886;2023-06-22T17:59:51;11.95;;;5.30;;
18206;SDS011;9229;52.354;20.886;2023-06-22T18:04:57;12.63;;;4.93;;
18206;SDS011;9229;52.354;20.886;2023-06-22T18:10:02;16.10;;;5.57;;
18206;SDS011;9229;52.354;20.886;2023-06-22T18:15:05;24.20;;;5.78;;
18206;SDS011;9229;52.354;20.886;2023-06-22T18:20:10;15.07;;;5.00;;
18206;SDS011;9229;52.354;20.886;2023-06-22T18:25:12;15.25;;;5.60;;
18206;SDS011;9229;52.354;20.886;2023-06-22T18:30:16;13.70;;;5.28;;
18206;SDS011;9229;52.354;20.886;2023-06-22T18:35:21;10.13;;;5.68;;
18206;SDS011;9229;52.354;20.886;2023-06-22T18:40:23;6.07;;;5.10;;
18206;SDS011;9229;52.354;20.886;2023-06-22T18:45:26;5.90;;;5.20;;
18206;SDS011;9229;52.354;20.886;2023-06-22T18:50:37;6.28;;;5.78;;
18206;SDS011;9229;52.354;20.886;2023-06-22T18:55:41;7.93;;;5.45;;
18206;SDS011;9229;52.354;20.886;2023-06-22T19:00:50;6.25;;;5.70;;
18206;SDS011;9229;52.354;20.886;2023-06-22T19:05:54;5.18;;;4.68;;
18206;SDS011;9229;52.354;20.886;2023-06-22T19:11:10;21.10;;;6.15;;
18206;SDS011;9229;52.354;20.886;2023-06-22T19:16:16;6.82;;;5.35;;
18206;SDS011;9229;52.354;20.886;2023-06-22T19:21:21;8.35;;;5.15;;
18206;SDS011;9229;52.354;20.886;2023-06-22T19:26:24;5.63;;;5.20;;
18206;SDS011;9229;52.354;20.886;2023-06-22T19:31:26;6.80;;;5.30;;
18206;SDS011;9229;52.354;20.886;2023-06-22T19:36:32;11.63;;;5.90;;
18206;SDS011;9229;52.354;20.886;2023-06-22T19:41:34;10.63;;;5.72;;
18206;SDS011;9229;52.354;20.886;2023-06-22T19:46:36;22.42;;;6.10;;
18206;SDS011;9229;52.354;20.886;2023-06-22T19:51:40;39.95;;;7.38;;
18206;SDS011;9229;52.354;20.886;2023-06-22T19:56:43;18.80;;;6.53;;
18206;SDS011;9229;52.354;20.886;2023-06-22T20:01:45;15.50;;;6.95;;
18206;SDS011;9229;52.354;20.886;2023-06-22T20:12:08;27.98;;;7.78;;
18206;SDS011;9229;52.354;20.886;2023-06-22T20:17:14;28.23;;;8.35;;
18206;SDS011;9229;52.354;20.886;2023-06-22T20:22:18;23.92;;;7.40;;
18206;SDS011;9229;52.354;20.886;2023-06-22T20:27:21;18.80;;;7.82;;
18206;SDS011;9229;52.354;20.886;2023-06-22T20:32:26;14.70;;;6.47;;
18206;SDS011;9229;52.354;20.886;2023-06-22T20:37:29;15.90;;;7.22;;
18206;SDS011;9229;52.354;20.886;2023-06-22T20:42:32;19.67;;;6.68;;
18206;SDS011;9229;52.354;20.886;2023-06-22T20:47:35;14.38;;;7.45;;
18206;SDS011;9229;52.354;20.886;2023-06-22T20:52:42;16.67;;;7.03;;
18206;SDS011;9229;52.354;20.886;2023-06-22T20:57:47;16.60;;;7.30;;
18206;SDS011;9229;52.354;20.886;2023-06-22T21:03:22;10.35;;;6.35;;
18206;SDS011;9229;52.354;20.886;2023-06-22T21:27:20;18.55;;;7.15;;
18206;SDS011;9229;52.354;20.886;2023-06-22T21:32:41;7.78;;;7.03;;
18206;SDS011;9229;52.354;20.886;2023-06-22T21:38:06;11.07;;;7.35;;
18206;SDS011;9229;52.354;20.886;2023-06-22T21:43:28;11.10;;;8.00;;
18206;SDS011;9229;52.354;20.886;2023-06-22T21:48:30;9.30;;;7.07;;
18206;SDS011;9229;52.354;20.886;2023-06-22T21:53:39;11.13;;;7.38;;
18206;SDS011;9229;52.354;20.886;2023-06-22T22:04:48;7.35;;;6.35;;
18206;SDS011;9229;52.354;20.886;2023-06-22T22:10:08;12.35;;;7.07;;
18206;SDS011;9229;52.354;20.886;2023-06-22T22:15:29;21.23;;;8.25;;
18206;SDS011;9229;52.354;20.886;2023-06-22T22:21:06;13.18;;;7.35;;
18206;SDS011;9229;52.354;20.886;2023-06-22T22:26:14;14.18;;;7.68;;
18206;SDS011;9229;52.354;20.886;2023-06-22T22:31:59;15.80;;;7.18;;
18206;SDS011;9229;52.354;20.886;2023-06-22T22:37:26;7.95;;;7.15;;
18206;SDS011;9229;52.354;20.886;2023-06-22T22:43:20;14.88;;;7.45;;
18206;SDS011;9229;52.354;20.886;2023-06-22T22:48:26;16.98;;;7.80;;
18206;SDS011;9229;52.354;20.886;2023-06-22T22:53:34;11.05;;;7.40;;
18206;SDS011;9229;52.354;20.886;2023-06-22T22:58:37;9.60;;;7.25;;
18206;SDS011;9229;52.354;20.886;2023-06-22T23:03:40;18.73;;;8.25;;
18206;SDS011;9229;52.354;20.886;2023-06-22T23:08:45;10.57;;;7.75;;
18206;SDS011;9229;52.354;20.886;2023-06-22T23:13:59;9.10;;;7.32;;
18206;SDS011;9229;52.354;20.886;2023-06-22T23:19:02;10.50;;;7.70;;
18206;SDS011;9229;52.354;20.886;2023-06-22T23:24:05;8.63;;;7.50;;
18206;SDS011;9229;52.354;20.886;2023-06-22T23:29:08;10.32;;;7.45;;
18206;SDS011;9229;52.354;20.886;2023-06-22T23:34:12;9.50;;;8.35;;
18206;SDS011;9229;52.354;20.886;2023-06-22T23:39:15;8.82;;;7.13;;
18206;SDS011;9229;52.354;20.886;2023-06-22T23:44:18;10.60;;;7.55;;
18206;SDS011;9229;52.354;20.886;2023-06-22T23:49:21;8.98;;;7.63;;
18206;SDS011;9229;52.354;20.886;2023-06-22T23:54:23;11.65;;;7.28;;
18206;SDS011;9229;52.354;20.886;2023-06-22T23:59:27;8.98;;;7.10;;
